Time;durP1;ratioP1;P1;durP2;ratioP2;P2;SDS_P1;SDS_P2;PMS_P1;PMS_P2;Temp;Humidity;BMP_temperature;BMP_pressure;BME280_temperature;BME280_humidity;BME280_pressure;Samples;Min_cycle;Max_cycle;Signal;HPM_P1;HPM_P2
2023/09/17 00:00:16;;;;;;;15.85;14.25;;;;;;;;;;5062264;28;20028;-62
2023/09/17 00:02:42;;;;;;;15.85;13.50;;;;;;;;;;5062315;28;20035;-62
2023/09/17 00:05:08;;;;;;;16.55;14.63;;;;;;;;;;5062299;28;20020;-62
2023/09/17 00:07:35;;;;;;;15.15;13.30;;;;;;;;;;5062028;28;20039;-62
2023/09/17 00:10:01;;;;;;;14.80;13.27;;;;;;;;;;5063139;28;20114;-62
2023/09/17 00:12:27;;;;;;;14.40;12.05;;;;;;;;;;5062830;28;20060;-62
2023/09/17 00:14:53;;;;;;;16.02;13.07;;;;;;;;;;5061441;28;20102;-62
2023/09/17 00:17:19;;;;;;;11.85;10.18;;;;;;;;;;5062516;28;20036;-62
2023/09/17 00:19:45;;;;;;;12.98;10.70;;;;;;;;;;5061509;28;21743;-62
2023/09/17 00:22:14;;;;;;;11.20;9.75;;;;;;;;;;5061859;28;20065;-62
2023/09/17 00:24:41;;;;;;;12.20;11.00;;;;;;;;;;5061991;28;20050;-62
2023/09/17 00:27:08;;;;;;;12.68;10.65;;;;;;;;;;5061313;28;20086;-62
2023/09/17 00:29:34;;;;;;;13.40;10.55;;;;;;;;;;5060963;28;20059;-62
2023/09/17 00:32:00;;;;;;;13.68;9.48;;;;;;;;;;5061613;28;20033;-62
2023/09/17 00:34:26;;;;;;;9.50;8.55;;;;;;;;;;5061624;28;20024;-62
2023/09/17 00:36:52;;;;;;;10.50;9.05;;;;;;;;;;5061977;28;20099;-62
2023/09/17 00:39:18;;;;;;;10.02;8.95;;;;;;;;;;5062564;28;20973;-62
2023/09/17 00:41:44;;;;;;;9.90;8.90;;;;;;;;;;5062915;28;20032;-62
2023/09/17 00:44:11;;;;;;;8.77;7.78;;;;;;;;;;5062981;28;20065;-62
2023/09/17 00:46:38;;;;;;;9.13;7.95;;;;;;;;;;5061696;28;20067;-62
2023/09/17 00:49:12;;;;;;;11.18;8.88;;;;;;;;;;5060154;28;20253;-62
2023/09/17 00:51:38;;;;;;;;;;;;;;;;;;5063210;28;20469;-62
2023/09/17 00:54:04;;;;;;;9.70;8.30;;;;;;;;;;5061658;28;19990;-62
2023/09/17 00:56:30;;;;;;;10.25;9.15;;;;;;;;;;5062026;28;20106;-62
2023/09/17 00:58:57;;;;;;;9.77;8.77;;;;;;;;;;5061319;28;20924;-62
2023/09/17 01:01:23;;;;;;;11.27;9.90;;;;;;;;;;5062534;28;20571;-62
2023/09/17 01:03:49;;;;;;;11.18;9.07;;;;;;;;;;5060874;28;20073;-62
2023/09/17 01:06:15;;;;;;;11.13;8.88;;;;;;;;;;5060857;28;20025;-62
2023/09/17 01:08:41;;;;;;;10.73;9.27;;;;;;;;;;5061265;28;20081;-62
2023/09/17 01:11:09;;;;;;;11.13;8.30;;;;;;;;;;5061266;28;20059;-62
2023/09/17 01:13:41;;;;;;;12.48;10.93;;;;;;;;;;5062666;28;20060;-62
2023/09/17 01:16:09;;;;;;;11.10;9.85;;;;;;;;;;5066798;28;20048;-62
2023/09/17 01:18:35;;;;;;;10.65;9.43;;;;;;;;;;5063360;28;20425;-62
2023/09/17 01:21:04;;;;;;;11.43;9.90;;;;;;;;;;5065436;28;20040;-62
2023/09/17 01:23:36;;;;;;;11.25;9.15;;;;;;;;;;5065213;28;20024;-62
2023/09/17 01:26:08;;;;;;;11.38;9.85;;;;;;;;;;5065749;28;20051;-62
2023/09/17 01:28:34;;;;;;;12.60;9.38;;;;;;;;;;5064639;28;20028;-62
2023/09/17 01:31:00;;;;;;;14.60;10.45;;;;;;;;;;5062981;28;20086;-62
2023/09/17 01:33:28;;;;;;;11.63;10.30;;;;;;;;;;5065924;28;20063;-62
2023/09/17 01:35:54;;;;;;;13.55;12.20;;;;;;;;;;5063004;28;20467;-62
2023/09/17 01:38:22;;;;;;;17.63;15.23;;;;;;;;;;5064908;28;20039;-62
2023/09/17 01:40:48;;;;;;;20.85;18.70;;;;;;;;;;5064949;28;20020;-62
2023/09/17 01:43:17;;;;;;;20.83;18.73;;;;;;;;;;5064599;28;20040;-62
2023/09/17 01:45:44;;;;;;;19.92;17.27;;;;;;;;;;5064996;28;20024;-62
2023/09/17 01:48:10;;;;;;;16.05;14.35;;;;;;;;;;5064616;28;20657;-62
2023/09/17 01:50:37;;;;;;;18.02;16.13;;;;;;;;;;5065033;28;20036;-62
2023/09/17 01:53:04;;;;;;;16.50;14.73;;;;;;;;;;5064441;28;20119;-62
2023/09/17 01:55:30;;;;;;;16.17;14.48;;;;;;;;;;5064222;28;20052;-62
2023/09/17 01:57:56;;;;;;;18.60;14.40;;;;;;;;;;5063846;28;20040;-62
2023/09/17 02:00:22;;;;;;;15.02;13.52;;;;;;;;;;5063642;28;20047;-62
2023/09/17 02:02:51;;;;;;;19.98;15.90;;;;;;;;;;5061767;28;20059;-62
2023/09/17 02:05:17;;;;;;;16.52;14.82;;;;;;;;;;5063507;28;20035;-62
2023/09/17 02:07:46;;;;;;;20.98;18.25;;;;;;;;;;5064907;28;20901;-62
2023/09/17 02:10:12;;;;;;;22.80;19.02;;;;;;;;;;5064942;28;20024;-62
2023/09/17 02:12:38;;;;;;;21.90;19.50;;;;;;;;;;5064762;28;20137;-62
2023/09/17 02:15:04;;;;;;;25.45;21.25;;;;;;;;;;5062071;28;20047;-62
2023/09/17 02:17:31;;;;;;;20.35;18.17;;;;;;;;;;5064238;28;20067;-62
2023/09/17 02:19:57;;;;;;;21.27;17.88;;;;;;;;;;5065061;28;20032;-62
2023/09/17 02:22:23;;;;;;;20.25;18.05;;;;;;;;;;5063378;28;20770;-62
2023/09/17 02:24:49;;;;;;;21.25;18.92;;;;;;;;;;5064830;28;20032;-62
2023/09/17 02:27:15;;;;;;;23.00;19.58;;;;;;;;;;5062310;28;20166;-62
2023/09/17 02:29:41;;;;;;;21.52;17.85;;;;;;;;;;5061958;28;20036;-62
2023/09/17 02:32:09;;;;;;;18.90;16.67;;;;;;;;;;5063088;28;20040;-62
2023/09/17 02:34:37;;;;;;;20.02;18.02;;;;;;;;;;5062297;28;21680;-62
2023/09/17 02:37:03;;;;;;;20.77;18.52;;;;;;;;;;5064135;28;20043;-62
2023/09/17 02:39:29;;;;;;;20.83;18.10;;;;;;;;;;5063082;28;20139;-62
2023/09/17 02:41:55;;;;;;;20.55;18.45;;;;;;;;;;5064810;28;21420;-62
2023/09/17 02:44:21;;;;;;;19.98;17.98;;;;;;;;;;5064044;28;20032;-62
2023/09/17 02:46:47;;;;;;;18.92;17.00;;;;;;;;;;5064158;28;20054;-62
2023/09/17 02:49:14;;;;;;;18.30;16.38;;;;;;;;;;5063537;28;20036;-62
2023/09/17 02:51:40;;;;;;;19.92;17.88;;;;;;;;;;5063878;28;20925;-62
2023/09/17 02:54:06;;;;;;;18.88;17.02;;;;;;;;;;5063501;28;20055;-62
2023/09/17 02:56:32;;;;;;;21.55;19.20;;;;;;;;;;5061892;28;20044;-62
2023/09/17 02:58:58;;;;;;;22.35;19.88;;;;;;;;;;5063697;28;20036;-62
2023/09/17 03:01:24;;;;;;;30.25;22.17;;;;;;;;;;5064139;28;20115;-62
2023/09/17 03:03:50;;;;;;;27.90;23.00;;;;;;;;;;5064118;28;20075;-62
2023/09/17 03:06:17;;;;;;;24.52;21.98;;;;;;;;;;5063104;28;20135;-62
2023/09/17 03:08:43;;;;;;;25.80;21.83;;;;;;;;;;5064090;28;20069;-62
2023/09/17 03:11:17;;;;;;;26.08;20.95;;;;;;;;;;5063376;28;20043;-62
2023/09/17 03:13:47;;;;;;;27.38;21.88;;;;;;;;;;5063762;28;20640;-68
2023/09/17 03:16:15;;;;;;;26.48;21.73;;;;;;;;;;5063157;28;20040;-67
2023/09/17 03:18:42;;;;;;;23.65;21.20;;;;;;;;;;5063487;28;20040;-67
2023/09/17 03:21:09;;;;;;;23.48;21.00;;;;;;;;;;5064338;28;20028;-68
2023/09/17 03:23:35;;;;;;;25.90;22.45;;;;;;;;;;5062179;28;20028;-68
2023/09/17 03:26:01;;;;;;;24.58;21.13;;;;;;;;;;5063569;28;20115;-67
2023/09/17 03:28:30;;;;;;;25.02;22.42;;;;;;;;;;5063900;28;20028;-68
2023/09/17 03:30:57;;;;;;;24.40;21.80;;;;;;;;;;5062831;28;20139;-67
2023/09/17 03:33:23;;;;;;;23.80;21.27;;;;;;;;;;5062717;28;20121;-68
2023/09/17 03:35:49;;;;;;;21.80;19.40;;;;;;;;;;5061808;28;20063;-68
2023/09/17 03:38:15;;;;;;;25.52;22.90;;;;;;;;;;5062689;28;20028;-67
2023/09/17 03:40:41;;;;;;;22.38;20.08;;;;;;;;;;5063370;28;20525;-67
2023/09/17 03:43:11;;;;;;;23.23;20.80;;;;;;;;;;5062575;28;20066;-67
2023/09/17 03:45:37;;;;;;;23.42;21.02;;;;;;;;;;5062897;28;20032;-68
2023/09/17 03:48:04;;;;;;;26.33;23.67;;;;;;;;;;5062001;28;20589;-68
2023/09/17 03:50:30;;;;;;;23.63;21.25;;;;;;;;;;5063464;28;20147;-67
2023/09/17 03:52:58;;;;;;;24.33;21.85;;;;;;;;;;5062122;28;20036;-67
2023/09/17 03:55:24;;;;;;;23.95;21.45;;;;;;;;;;5061971;28;20098;-67
2023/09/17 03:57:51;;;;;;;21.75;19.63;;;;;;;;;;5062808;28;20598;-67
2023/09/17 04:00:17;;;;;;;21.33;19.08;;;;;;;;;;5063809;28;20024;-67
2023/09/17 04:02:44;;;;;;;24.92;22.15;;;;;;;;;;5056481;28;20070;-68
2023/09/17 04:05:12;;;;;;;22.77;20.33;;;;;;;;;;5062858;28;20039;-67
2023/09/17 04:07:39;;;;;;;24.13;21.63;;;;;;;;;;5063519;28;20028;-62
2023/09/17 04:10:06;;;;;;;26.27;22.65;;;;;;;;;;5063740;28;20032;-62
2023/09/17 04:12:41;;;;;;;22.30;20.00;;;;;;;;;;5061272;28;20479;-62
2023/09/17 04:15:12;;;;;;;23.98;20.80;;;;;;;;;;5064104;28;20024;-62
2023/09/17 04:17:39;;;;;;;21.95;19.45;;;;;;;;;;5058913;28;20154;-62
2023/09/17 04:20:10;;;;;;;23.83;21.15;;;;;;;;;;5062338;28;20028;-62
2023/09/17 04:22:36;;;;;;;22.65;20.13;;;;;;;;;;5061514;28;20039;-62
2023/09/17 04:25:04;;;;;;;24.65;22.08;;;;;;;;;;5060651;28;20964;-62
2023/09/17 04:27:30;;;;;;;24.63;22.02;;;;;;;;;;5061823;28;20039;-62
2023/09/17 04:29:57;;;;;;;25.83;22.92;;;;;;;;;;5062503;28;20028;-62
2023/09/17 04:32:23;;;;;;;26.33;22.25;;;;;;;;;;5061486;28;20118;-62
2023/09/17 04:34:49;;;;;;;25.55;21.73;;;;;;;;;;5062829;28;20147;-62
2023/09/17 04:37:19;;;;;;;27.38;22.63;;;;;;;;;;5063278;28;20054;-62
2023/09/17 04:39:46;;;;;;;23.15;20.75;;;;;;;;;;5062565;28;20024;-62
2023/09/17 04:42:12;;;;;;;23.63;21.23;;;;;;;;;;5062777;28;21843;-62
2023/09/17 04:44:38;;;;;;;24.25;21.35;;;;;;;;;;5060374;28;20109;-62
2023/09/17 04:47:06;;;;;;;25.52;21.67;;;;;;;;;;5061493;28;20032;-62
2023/09/17 04:49:33;;;;;;;23.20;20.80;;;;;;;;;;5064555;28;20036;-62
2023/09/17 04:51:59;;;;;;;23.77;20.10;;;;;;;;;;5066149;28;20964;-62
2023/09/17 04:54:26;;;;;;;23.30;20.88;;;;;;;;;;5066053;28;20044;-62
2023/09/17 04:56:52;;;;;;;24.85;22.25;;;;;;;;;;5065368;28;20708;-62
2023/09/17 04:59:19;;;;;;;27.17;21.40;;;;;;;;;;5066462;28;20032;-62
2023/09/17 05:01:45;;;;;;;25.05;22.45;;;;;;;;;;5066927;28;20024;-62
2023/09/17 05:04:11;;;;;;;24.52;21.83;;;;;;;;;;5065906;28;20036;-62
2023/09/17 05:06:37;;;;;;;24.10;21.45;;;;;;;;;;5066256;28;21807;-62
2023/09/17 05:09:03;;;;;;;25.25;22.55;;;;;;;;;;5065920;28;20032;-62
2023/09/17 05:11:30;;;;;;;23.63;21.13;;;;;;;;;;5066028;28;20483;-62
2023/09/17 05:13:56;;;;;;;26.30;23.52;;;;;;;;;;5064904;28;20043;-62
2023/09/17 05:16:22;;;;;;;25.30;22.48;;;;;;;;;;5064188;28;20032;-62
2023/09/17 05:18:49;;;;;;;24.20;21.45;;;;;;;;;;5065327;28;20036;-62
2023/09/17 05:21:15;;;;;;;26.40;23.65;;;;;;;;;;5066638;28;20306;-62
2023/09/17 05:23:41;;;;;;;26.25;23.50;;;;;;;;;;5066068;28;20611;-62
2023/09/17 05:26:08;;;;;;;25.17;22.60;;;;;;;;;;5065510;28;20119;-62
2023/09/17 05:28:34;;;;;;;28.48;25.17;;;;;;;;;;5064722;28;20542;-62
2023/09/17 05:31:00;;;;;;;28.73;25.02;;;;;;;;;;5063718;28;20208;-62
2023/09/17 05:33:26;;;;;;;25.67;23.05;;;;;;;;;;5063491;28;20039;-62
2023/09/17 05:35:56;;;;;;;29.02;24.73;;;;;;;;;;5063954;28;20081;-62
2023/09/17 05:38:22;;;;;;;27.05;24.10;;;;;;;;;;5064220;28;20041;-62
2023/09/17 05:40:48;;;;;;;31.58;25.65;;;;;;;;;;5064346;28;20032;-62
2023/09/17 05:43:15;;;;;;;27.20;24.33;;;;;;;;;;5064759;28;20039;-62
2023/09/17 05:45:41;;;;;;;27.05;24.25;;;;;;;;;;5064333;28;20039;-62
2023/09/17 05:48:07;;;;;;;26.13;23.45;;;;;;;;;;5063627;28;20244;-62
2023/09/17 05:50:33;;;;;;;28.23;25.20;;;;;;;;;;5065658;28;20146;-62
2023/09/17 05:52:59;;;;;;;26.23;23.50;;;;;;;;;;5065400;28;20032;-62
2023/09/17 05:55:25;;;;;;;26.52;23.75;;;;;;;;;;5065438;28;21011;-62
2023/09/17 05:57:51;;;;;;;27.27;24.08;;;;;;;;;;5064810;28;20094;-62
2023/09/17 06:00:18;;;;;;;28.75;24.25;;;;;;;;;;5065355;28;20033;-62
2023/09/17 06:02:44;;;;;;;30.20;25.58;;;;;;;;;;5064652;28;20449;-62
2023/09/17 06:05:10;;;;;;;27.67;24.70;;;;;;;;;;5063753;28;20454;-68
2023/09/17 06:07:36;;;;;;;27.35;24.27;;;;;;;;;;5064677;28;21242;-67
2023/09/17 06:10:04;;;;;;;27.05;23.95;;;;;;;;;;5065580;28;20032;-67
2023/09/17 06:12:31;;;;;;;25.75;23.08;;;;;;;;;;5064771;28;20028;-68
2023/09/17 06:14:57;;;;;;;27.85;24.77;;;;;;;;;;5082589;28;20032;-67
2023/09/17 06:17:23;;;;;;;26.60;23.38;;;;;;;;;;5065336;28;20036;-68
2023/09/17 06:19:49;;;;;;;35.72;25.92;;;;;;;;;;5065058;28;20035;-68
2023/09/17 06:22:15;;;;;;;30.23;25.40;;;;;;;;;;5064013;28;20144;-67
2023/09/17 06:24:41;;;;;;;30.00;25.55;;;;;;;;;;5065330;28;20052;-67
2023/09/17 06:27:07;;;;;;;30.00;25.88;;;;;;;;;;5065112;28;20052;-68
2023/09/17 06:29:33;;;;;;;29.15;25.90;;;;;;;;;;5064842;28;20499;-67
2023/09/17 06:32:00;;;;;;;29.05;25.33;;;;;;;;;;5064960;28;20028;-68
2023/09/17 06:34:26;;;;;;;28.55;25.55;;;;;;;;;;5065571;28;20487;-67
2023/09/17 06:36:52;;;;;;;31.13;27.92;;;;;;;;;;5065364;28;20035;-67
2023/09/17 06:39:18;;;;;;;29.02;25.85;;;;;;;;;;5065447;28;20054;-68
2023/09/17 06:41:45;;;;;;;30.88;27.50;;;;;;;;;;5065603;28;20472;-68
2023/09/17 06:44:11;;;;;;;31.15;27.63;;;;;;;;;;5065941;28;20682;-67
2023/09/17 06:46:37;;;;;;;29.40;26.40;;;;;;;;;;5063844;28;20032;-68
2023/09/17 06:49:03;;;;;;;28.48;25.48;;;;;;;;;;5065502;28;20028;-68
2023/09/17 06:51:29;;;;;;;28.35;25.35;;;;;;;;;;5061270;28;20044;-68
2023/09/17 06:53:55;;;;;;;27.27;24.15;;;;;;;;;;5061928;28;20052;-68
2023/09/17 06:56:25;;;;;;;29.38;26.23;;;;;;;;;;5061253;28;20032;-68
2023/09/17 06:58:51;;;;;;;27.95;25.05;;;;;;;;;;5063862;28;20042;-68
2023/09/17 07:01:18;;;;;;;28.30;24.90;;;;;;;;;;5063311;28;20031;-67
2023/09/17 07:03:44;;;;;;;26.70;23.92;;;;;;;;;;5063935;28;20111;-68
2023/09/17 07:06:10;;;;;;;27.08;24.20;;;;;;;;;;5064228;28;20111;-68
2023/09/17 07:08:36;;;;;;;25.80;22.98;;;;;;;;;;5064436;28;20130;-68
2023/09/17 07:11:04;;;;;;;25.17;22.60;;;;;;;;;;5060558;28;20064;-68
2023/09/17 07:13:30;;;;;;;26.75;23.95;;;;;;;;;;5060267;28;20268;-68
2023/09/17 07:15:56;;;;;;;25.65;22.88;;;;;;;;;;5058209;28;21377;-68
2023/09/17 07:18:23;;;;;;;24.23;21.77;;;;;;;;;;5058487;28;21041;-67
2023/09/17 07:20:52;;;;;;;25.48;22.88;;;;;;;;;;5060994;28;20028;-68
2023/09/17 07:23:18;;;;;;;24.25;21.65;;;;;;;;;;5061602;28;20028;-68
2023/09/17 07:25:48;;;;;;;26.05;23.42;;;;;;;;;;5061062;28;20142;-68
2023/09/17 07:28:14;;;;;;;25.85;22.75;;;;;;;;;;5063879;28;21676;-68
2023/09/17 07:30:40;;;;;;;24.10;21.58;;;;;;;;;;5063884;28;20040;-68
2023/09/17 07:33:06;;;;;;;23.55;21.05;;;;;;;;;;5065378;28;20087;-68
2023/09/17 07:35:33;;;;;;;24.55;21.55;;;;;;;;;;5064333;28;20032;-68
2023/09/17 07:38:02;;;;;;;23.83;21.02;;;;;;;;;;5064379;28;20050;-68
2023/09/17 07:40:28;;;;;;;24.35;21.30;;;;;;;;;;5063886;28;20063;-68
2023/09/17 07:42:54;;;;;;;20.65;18.45;;;;;;;;;;5064346;28;20038;-68
2023/09/17 07:45:20;;;;;;;23.80;19.88;;;;;;;;;;5064224;28;20575;-68
2023/09/17 07:47:46;;;;;;;21.63;19.45;;;;;;;;;;5064042;28;20040;-68
2023/09/17 07:50:13;;;;;;;25.25;20.27;;;;;;;;;;5063612;28;20043;-68
2023/09/17 07:52:40;;;;;;;22.83;20.35;;;;;;;;;;5064679;28;20035;-68
2023/09/17 07:55:07;;;;;;;21.65;19.30;;;;;;;;;;5063812;28;20154;-68
2023/09/17 07:57:33;;;;;;;23.48;19.42;;;;;;;;;;5063529;28;20581;-68
2023/09/17 08:00:00;;;;;;;21.58;19.33;;;;;;;;;;5063902;28;20028;-68
2023/09/17 08:02:26;;;;;;;23.10;20.67;;;;;;;;;;5061927;28;20029;-63
2023/09/17 08:04:52;;;;;;;21.33;19.02;;;;;;;;;;5063612;28;20028;-62
2023/09/17 08:07:18;;;;;;;22.15;19.75;;;;;;;;;;5063460;28;20036;-62
2023/09/17 08:09:44;;;;;;;24.23;19.63;;;;;;;;;;5063199;28;20149;-62
2023/09/17 08:12:10;;;;;;;21.73;19.50;;;;;;;;;;5063254;28;20843;-62
2023/09/17 08:14:37;;;;;;;26.75;21.38;;;;;;;;;;5063057;28;20035;-62
2023/09/17 08:17:04;;;;;;;24.65;21.70;;;;;;;;;;5063261;28;21725;-62
2023/09/17 08:19:32;;;;;;;24.88;22.17;;;;;;;;;;5063168;28;20383;-62
2023/09/17 08:21:58;;;;;;;24.85;21.50;;;;;;;;;;5062371;28;20151;-62
2023/09/17 08:24:25;;;;;;;25.23;22.58;;;;;;;;;;5063158;28;20031;-62
2023/09/17 08:26:52;;;;;;;26.20;23.15;;;;;;;;;;5062741;28;20092;-62
2023/09/17 08:29:20;;;;;;;26.20;23.10;;;;;;;;;;5062587;28;20024;-68
2023/09/17 08:31:47;;;;;;;26.92;22.67;;;;;;;;;;5061948;28;20032;-68
2023/09/17 08:34:13;;;;;;;27.10;23.77;;;;;;;;;;5061122;28;20039;-68
2023/09/17 08:36:40;;;;;;;26.65;23.58;;;;;;;;;;5061918;28;20032;-68
2023/09/17 08:39:09;;;;;;;26.00;23.13;;;;;;;;;;5061952;28;20096;-68
2023/09/17 08:41:35;;;;;;;27.67;23.42;;;;;;;;;;5061878;28;20020;-68
2023/09/17 08:44:04;;;;;;;27.85;23.30;;;;;;;;;;5062279;28;20024;-68
2023/09/17 08:46:31;;;;;;;29.35;24.83;;;;;;;;;;5059678;28;20056;-68
2023/09/17 08:48:58;;;;;;;27.58;24.58;;;;;;;;;;5062588;28;20115;-68
2023/09/17 08:51:24;;;;;;;29.50;25.17;;;;;;;;;;5062941;28;20044;-68
2023/09/17 08:53:50;;;;;;;30.63;25.05;;;;;;;;;;5063155;28;20096;-68
2023/09/17 08:56:17;;;;;;;28.13;25.13;;;;;;;;;;5062559;28;20060;-68
2023/09/17 08:58:53;;;;;;;27.45;24.20;;;;;;;;;;5062453;28;21715;-68
2023/09/17 09:01:22;;;;;;;27.95;24.95;;;;;;;;;;5063303;28;20043;-68
2023/09/17 09:03:49;;;;;;;26.92;24.02;;;;;;;;;;5062424;28;20031;-68
2023/09/17 09:06:16;;;;;;;26.67;23.83;;;;;;;;;;5062833;28;20033;-68
2023/09/17 09:08:43;;;;;;;27.13;23.42;;;;;;;;;;5062722;28;20055;-68
2023/09/17 09:11:09;;;;;;;26.88;23.45;;;;;;;;;;5062902;28;20029;-68
2023/09/17 09:13:39;;;;;;;27.40;23.83;;;;;;;;;;5062973;28;20064;-68
2023/09/17 09:16:05;;;;;;;28.45;23.85;;;;;;;;;;5061392;28;20246;-67
2023/09/17 09:18:32;;;;;;;25.17;22.52;;;;;;;;;;5062559;28;20068;-67
2023/09/17 09:20:58;;;;;;;24.38;20.75;;;;;;;;;;5062339;28;20078;-68
2023/09/17 09:23:25;;;;;;;25.23;22.52;;;;;;;;;;5062687;28;20116;-68
2023/09/17 09:25:51;;;;;;;24.83;22.13;;;;;;;;;;5062756;28;20442;-68
2023/09/17 09:28:17;;;;;;;24.63;21.67;;;;;;;;;;5063143;28;20039;-68
2023/09/17 09:30:43;;;;;;;23.33;20.83;;;;;;;;;;5062181;28;20496;-68
2023/09/17 09:33:10;;;;;;;23.17;20.33;;;;;;;;;;5063152;28;20526;-68
2023/09/17 09:35:36;;;;;;;23.45;20.08;;;;;;;;;;5065039;28;20124;-67
2023/09/17 09:38:02;;;;;;;22.15;19.70;;;;;;;;;;5066598;28;20074;-68
2023/09/17 09:40:29;;;;;;;23.92;20.23;;;;;;;;;;5067205;28;20550;-68
2023/09/17 09:42:55;;;;;;;21.75;19.42;;;;;;;;;;5065665;28;20028;-68
2023/09/17 09:45:21;;;;;;;24.95;20.73;;;;;;;;;;5066993;28;20036;-68
2023/09/17 09:47:48;;;;;;;20.27;18.13;;;;;;;;;;5066343;28;20039;-68
2023/09/17 09:50:21;;;;;;;22.83;18.63;;;;;;;;;;5065748;28;20037;-68
2023/09/17 09:52:48;;;;;;;20.40;17.85;;;;;;;;;;5066675;28;21280;-68
2023/09/17 09:55:14;;;;;;;20.17;17.75;;;;;;;;;;5066021;28;20062;-67
2023/09/17 09:57:42;;;;;;;21.25;15.60;;;;;;;;;;5065854;28;21166;-68
2023/09/17 10:00:15;;;;;;;16.52;14.27;;;;;;;;;;5066449;28;20559;-67
2023/09/17 10:02:41;;;;;;;19.88;15.60;;;;;;;;;;5066605;28;20040;-68
2023/09/17 10:05:10;;;;;;;16.60;14.75;;;;;;;;;;5065974;28;20060;-68
2023/09/17 10:07:37;;;;;;;19.67;15.43;;;;;;;;;;5064901;28;20040;-67
2023/09/17 10:10:03;;;;;;;17.35;14.55;;;;;;;;;;5065480;28;20110;-68
2023/09/17 10:12:29;;;;;;;18.17;15.40;;;;;;;;;;5063712;28;20024;-68
2023/09/17 10:14:55;;;;;;;16.05;13.48;;;;;;;;;;5063689;28;20586;-68
2023/09/17 10:17:22;;;;;;;16.80;14.00;;;;;;;;;;5064913;28;20040;-68
2023/09/17 10:19:49;;;;;;;17.60;13.40;;;;;;;;;;5064863;28;20035;-67
2023/09/17 10:22:17;;;;;;;18.30;13.70;;;;;;;;;;5063947;28;20033;-68
2023/09/17 10:24:44;;;;;;;17.10;14.07;;;;;;;;;;5065984;28;20032;-68
2023/09/17 10:27:13;;;;;;;18.17;14.73;;;;;;;;;;5065910;28;20043;-68
2023/09/17 10:29:41;;;;;;;17.73;14.15;;;;;;;;;;5065455;28;20032;-68
2023/09/17 10:32:09;;;;;;;17.80;15.02;;;;;;;;;;5066127;28;20028;-67
2023/09/17 10:34:35;;;;;;;22.10;16.60;;;;;;;;;;5064384;28;20024;-68
2023/09/17 10:37:03;;;;;;;19.60;16.42;;;;;;;;;;5064904;28;20028;-67
2023/09/17 10:39:29;;;;;;;20.52;16.77;;;;;;;;;;5065437;28;20028;-67
2023/09/17 10:41:56;;;;;;;19.48;17.48;;;;;;;;;;5065908;28;20024;-67
2023/09/17 10:44:23;;;;;;;20.83;17.45;;;;;;;;;;5065531;28;20052;-67
2023/09/17 10:46:50;;;;;;;19.55;17.48;;;;;;;;;;5064022;28;20020;-68
2023/09/17 10:49:17;;;;;;;20.65;17.63;;;;;;;;;;5065560;28;21539;-67
2023/09/17 10:51:44;;;;;;;21.65;19.02;;;;;;;;;;5064655;28;20075;-67
2023/09/17 10:54:11;;;;;;;20.35;17.60;;;;;;;;;;5065281;28;20028;-67
2023/09/17 10:56:41;;;;;;;20.65;18.52;;;;;;;;;;5065428;28;20067;-67
2023/09/17 10:59:09;;;;;;;23.52;18.70;;;;;;;;;;5064901;28;20104;-67
2023/09/17 11:01:35;;;;;;;17.67;15.77;;;;;;;;;;5064058;28;20100;-67
2023/09/17 11:04:13;;;;;;;21.25;17.63;;;;;;;;;;5064355;28;20039;-67
2023/09/17 11:06:41;;;;;;;20.63;17.63;;;;;;;;;;5064936;28;20790;-68
2023/09/17 11:09:07;;;;;;;22.55;17.55;;;;;;;;;;5064413;28;20106;-68
2023/09/17 11:11:37;;;;;;;21.70;18.23;;;;;;;;;;5064754;28;20161;-68
2023/09/17 11:14:04;;;;;;;22.80;18.55;;;;;;;;;;5064847;28;20036;-68
2023/09/17 11:16:30;;;;;;;22.80;18.98;;;;;;;;;;5065044;28;20085;-68
2023/09/17 11:19:07;;;;;;;24.42;20.23;;;;;;;;;;5065069;28;20506;-68
2023/09/17 11:21:36;;;;;;;21.40;19.15;;;;;;;;;;5064445;28;20651;-68
2023/09/17 11:24:05;;;;;;;22.33;18.80;;;;;;;;;;5064652;28;20032;-68
2023/09/17 11:26:32;;;;;;;22.02;18.90;;;;;;;;;;5064096;28;20115;-68
2023/09/17 11:29:01;;;;;;;20.50;18.30;;;;;;;;;;5063881;28;20024;-68
2023/09/17 11:31:28;;;;;;;21.63;19.33;;;;;;;;;;5064558;28;20982;-68
2023/09/17 11:33:55;;;;;;;24.73;21.02;;;;;;;;;;5064185;28;20047;-67
2023/09/17 11:36:21;;;;;;;25.92;21.15;;;;;;;;;;5064208;28;20028;-68
2023/09/17 11:38:47;;;;;;;23.85;19.55;;;;;;;;;;5064460;28;20487;-68
2023/09/17 11:41:15;;;;;;;20.25;17.83;;;;;;;;;;5063669;28;20126;-68
2023/09/17 11:43:46;;;;;;;21.60;19.38;;;;;;;;;;5063820;28;20046;-68
2023/09/17 11:46:13;;;;;;;21.63;17.02;;;;;;;;;;5063890;28;20143;-67
2023/09/17 11:48:41;;;;;;;21.00;18.48;;;;;;;;;;5063396;28;20039;-67
2023/09/17 11:51:22;;;;;;;22.38;19.35;;;;;;;;;;5062889;28;20054;-68
2023/09/17 11:53:55;;;;;;;22.80;18.63;;;;;;;;;;5058506;28;20032;-68
2023/09/17 11:56:22;;;;;;;20.20;17.65;;;;;;;;;;5062034;28;20048;-68
2023/09/17 11:59:00;;;;;;;20.73;18.52;;;;;;;;;;5062034;28;20629;-67
2023/09/17 12:01:28;;;;;;;20.85;17.88;;;;;;;;;;5062332;28;20062;-67
2023/09/17 12:03:55;;;;;;;20.73;18.50;;;;;;;;;;5061766;28;21305;-67
2023/09/17 12:06:21;;;;;;;22.35;19.98;;;;;;;;;;5063629;28;20125;-67
2023/09/17 12:08:48;;;;;;;23.80;19.48;;;;;;;;;;5062124;28;20043;-67
2023/09/17 12:11:21;;;;;;;21.25;19.05;;;;;;;;;;5063693;28;20043;-67
2023/09/17 12:13:53;;;;;;;20.23;18.05;;;;;;;;;;5062930;28;20027;-67
2023/09/17 12:16:19;;;;;;;22.73;20.35;;;;;;;;;;5063735;28;20387;-68
2023/09/17 12:18:46;;;;;;;22.13;19.80;;;;;;;;;;5063446;28;20025;-67
2023/09/17 12:21:12;;;;;;;22.27;19.33;;;;;;;;;;5063119;28;20029;-68
2023/09/17 12:23:47;;;;;;;20.20;18.00;;;;;;;;;;5063697;28;20067;-67
2023/09/17 12:26:22;;;;;;;24.92;21.52;;;;;;;;;;5063460;28;20059;-67
2023/09/17 12:28:48;;;;;;;24.00;21.45;;;;;;;;;;5062705;28;20527;-67
2023/09/17 12:31:14;;;;;;;29.48;23.20;;;;;;;;;;5063003;28;20032;-67
2023/09/17 12:33:43;;;;;;;22.02;19.73;;;;;;;;;;5063474;28;20047;-67
2023/09/17 12:36:09;;;;;;;22.73;20.30;;;;;;;;;;5061165;28;20033;-67
2023/09/17 12:38:35;;;;;;;25.45;22.63;;;;;;;;;;5063492;28;20055;-67
2023/09/17 12:41:01;;;;;;;22.90;20.23;;;;;;;;;;5063401;28;20055;-67
2023/09/17 12:43:27;;;;;;;21.20;19.02;;;;;;;;;;5062973;28;20990;-67
2023/09/17 12:45:53;;;;;;;24.10;21.30;;;;;;;;;;5063382;28;20085;-68
2023/09/17 12:48:20;;;;;;;24.45;21.98;;;;;;;;;;5060721;28;20497;-68
2023/09/17 12:50:46;;;;;;;20.98;18.83;;;;;;;;;;5063319;28;20122;-67
2023/09/17 12:53:13;;;;;;;20.60;18.38;;;;;;;;;;5080078;28;20262;-67
2023/09/17 12:55:39;;;;;;;20.80;18.42;;;;;;;;;;5062586;28;20563;-67
2023/09/17 12:58:08;;;;;;;23.95;19.08;;;;;;;;;;5063089;28;20047;-67
2023/09/17 13:00:34;;;;;;;20.63;18.00;;;;;;;;;;5063253;28;20043;-67
2023/09/17 13:03:11;;;;;;;20.95;18.70;;;;;;;;;;5061560;28;20078;-68
2023/09/17 13:05:37;;;;;;;21.73;18.17;;;;;;;;;;5062024;28;20028;-67
2023/09/17 13:08:05;;;;;;;23.08;19.08;;;;;;;;;;5062895;28;20081;-67
2023/09/17 13:10:31;;;;;;;22.38;19.17;;;;;;;;;;5063709;28;20039;-67
2023/09/17 13:12:57;;;;;;;21.95;18.42;;;;;;;;;;5066846;28;20569;-68
2023/09/17 13:15:23;;;;;;;21.30;19.10;;;;;;;;;;5067034;28;20032;-67
2023/09/17 13:17:49;;;;;;;19.73;17.30;;;;;;;;;;5066429;28;20040;-67
2023/09/17 13:20:17;;;;;;;20.13;18.02;;;;;;;;;;5067220;28;21060;-67
2023/09/17 13:22:43;;;;;;;20.42;17.48;;;;;;;;;;5065979;28;20028;-67
2023/09/17 13:25:09;;;;;;;19.98;17.02;;;;;;;;;;5066579;28;20047;-67
2023/09/17 13:27:35;;;;;;;18.25;16.13;;;;;;;;;;5066173;28;20046;-67
2023/09/17 13:30:05;;;;;;;19.73;17.63;;;;;;;;;;5066927;28;20032;-68
2023/09/17 13:32:31;;;;;;;19.33;17.27;;;;;;;;;;5065872;28;20040;-67
2023/09/17 13:34:58;;;;;;;19.35;17.35;;;;;;;;;;5066682;28;20036;-67
2023/09/17 13:37:25;;;;;;;19.77;17.67;;;;;;;;;;5065777;28;20033;-68
2023/09/17 13:39:52;;;;;;;19.77;16.52;;;;;;;;;;5065864;28;20024;-67
2023/09/17 13:42:18;;;;;;;21.58;17.50;;;;;;;;;;5065808;28;20024;-67
2023/09/17 13:44:44;;;;;;;21.20;18.08;;;;;;;;;;5066338;28;20069;-68
2023/09/17 13:47:11;;;;;;;21.83;17.92;;;;;;;;;;5065922;28;20035;-67
2023/09/17 13:49:38;;;;;;;19.63;17.02;;;;;;;;;;5066065;28;20036;-67
2023/09/17 13:52:04;;;;;;;21.48;19.17;;;;;;;;;;5066442;28;20024;-67
2023/09/17 13:54:30;;;;;;;21.08;18.90;;;;;;;;;;5066462;28;20028;-68
2023/09/17 13:56:57;;;;;;;23.58;21.08;;;;;;;;;;5064925;28;20040;-67
2023/09/17 13:59:23;;;;;;;24.52;21.65;;;;;;;;;;5066161;28;20036;-67
2023/09/17 14:01:49;;;;;;;26.48;20.42;;;;;;;;;;5065802;28;20077;-67
2023/09/17 14:04:15;;;;;;;25.65;21.52;;;;;;;;;;5065184;28;20024;-68
2023/09/17 14:06:42;;;;;;;24.50;21.90;;;;;;;;;;5065276;28;20029;-68
2023/09/17 14:09:08;;;;;;;24.85;21.98;;;;;;;;;;5065759;28;20036;-67
2023/09/17 14:11:35;;;;;;;24.60;22.08;;;;;;;;;;5065184;28;20032;-67
2023/09/17 14:14:02;;;;;;;23.52;21.00;;;;;;;;;;5065400;28;20151;-67
2023/09/17 14:16:28;;;;;;;26.90;22.35;;;;;;;;;;5065899;28;20477;-68